createdAt,value
2024-01-09T00:00:06.332Z,4.50
2024-01-09T00:14:06.151Z,4.40
2024-01-09T00:28:05.970Z,4.00
2024-01-09T00:42:05.839Z,3.90
2024-01-09T00:56:05.784Z,5.00
2024-01-09T01:10:05.546Z,4.50
2024-01-09T01:24:05.415Z,4.00
2024-01-09T01:38:05.429Z,5.00
2024-01-09T01:52:05.156Z,4.40
2024-01-09T02:06:05.209Z,4.80
2024-01-09T02:20:04.875Z,4.70
2024-01-09T02:34:05.889Z,5.10
2024-01-09T02:48:04.785Z,4.50
2024-01-09T03:02:04.594Z,5.10
2024-01-09T03:16:04.446Z,5.10
2024-01-09T03:30:04.246Z,4.40
2024-01-09T03:44:04.120Z,5.10
2024-01-09T03:58:03.989Z,4.80
2024-01-09T04:12:03.814Z,5.10
2024-01-09T04:26:03.765Z,4.90
2024-01-09T04:40:03.543Z,5.00
2024-01-09T04:54:03.434Z,5.40
2024-01-09T05:08:03.317Z,5.30
2024-01-09T05:22:03.169Z,5.10
2024-01-09T05:36:03.040Z,4.60
2024-01-09T05:50:02.920Z,5.20
2024-01-09T06:04:02.832Z,5.30
2024-01-09T06:18:02.733Z,4.80
2024-01-09T06:32:02.505Z,5.30
2024-01-09T06:46:02.321Z,5.30
2024-01-09T07:00:02.371Z,5.50
2024-01-09T07:14:02.058Z,5.40
2024-01-09T07:28:01.931Z,5.20
2024-01-09T07:42:01.827Z,6.10
2024-01-09T07:56:01.734Z,5.80
2024-01-09T08:10:01.563Z,6.00
2024-01-09T08:24:01.500Z,5.40
2024-01-09T08:38:01.274Z,5.80
2024-01-09T08:52:01.145Z,5.30
2024-01-09T09:06:01.121Z,5.90
2024-01-09T09:20:00.928Z,5.30
2024-01-09T09:34:00.885Z,6.10
2024-01-09T09:48:00.756Z,5.70
2024-01-09T10:02:00.954Z,5.70
2024-01-09T10:16:00.432Z,5.70
2024-01-09T10:30:00.349Z,5.30
2024-01-09T10:44:00.077Z,6.10
2024-01-09T10:57:59.951Z,5.70
2024-01-09T11:11:59.807Z,4.90
2024-01-09T11:25:59.662Z,5.10
2024-01-09T11:39:59.531Z,5.20
2024-01-09T12:07:59.164Z,6.50
2024-01-09T12:21:59.073Z,7.60
2024-01-09T12:35:59.137Z,6.30
2024-01-09T12:50:04.046Z,6.20
2024-01-09T13:03:58.797Z,5.80
2024-01-09T13:17:58.601Z,6.20
2024-01-09T13:32:01.258Z,6.30
2024-01-09T13:46:00.949Z,6.20
2024-01-09T14:00:04.074Z,6.10
2024-01-09T14:14:04.402Z,5.60
2024-01-09T14:28:03.820Z,4.60
2024-01-09T14:56:03.757Z,5.50
2024-01-09T15:10:03.469Z,4.90
2024-01-09T15:24:03.329Z,5.40
2024-01-09T15:38:03.258Z,5.10
2024-01-09T15:52:03.063Z,5.80
2024-01-09T16:06:02.967Z,5.40
2024-01-09T16:20:02.960Z,4.90
2024-01-09T16:34:02.836Z,5.00
2024-01-09T16:48:03.938Z,5.40
2024-01-09T17:02:02.533Z,5.90
2024-01-09T17:16:02.643Z,5.90
2024-01-09T17:30:02.232Z,6.00
2024-01-09T17:44:02.057Z,6.20
2024-01-09T17:58:01.823Z,6.80
2024-01-09T18:12:01.674Z,6.40
2024-01-09T18:26:01.619Z,6.70
2024-01-09T18:40:01.425Z,6.50
2024-01-09T18:54:01.381Z,6.40
2024-01-09T19:08:01.264Z,8.60
2024-01-09T19:22:01.083Z,10.10
2024-01-09T19:36:00.982Z,10.80
2024-01-09T19:50:00.859Z,8.70
2024-01-09T20:04:00.733Z,9.10
2024-01-09T20:18:00.563Z,8.40
2024-01-09T20:32:00.470Z,9.10
2024-01-09T20:46:00.246Z,9.80
2024-01-09T21:00:00.157Z,8.60
2024-01-09T21:14:00.023Z,8.00
2024-01-09T21:27:59.895Z,7.90
2024-01-09T21:41:59.834Z,8.50
2024-01-09T21:55:59.671Z,8.10
2024-01-09T22:09:59.467Z,8.50
2024-01-09T22:23:59.340Z,7.90
2024-01-09T22:37:59.265Z,8.30
2024-01-09T22:51:59.083Z,8.70
2024-01-09T23:05:58.934Z,7.90
2024-01-09T23:19:58.821Z,8.60
2024-01-09T23:33:58.768Z,8.30
2024-01-09T23:47:59.096Z,7.80
